sensor_id;sensor_type;location;lat;lon;timestamp;P1;durP1;ratioP1;P2;durP2;ratioP2
79687;SDS011;69155;49.464;2.108;2023-12-07T00:02:09;45.90;;;16.13;;
79687;SDS011;69155;49.464;2.108;2023-12-07T00:04:37;50.30;;;18.55;;
79687;SDS011;69155;49.464;2.108;2023-12-07T00:07:02;61.47;;;17.47;;
79687;SDS011;69155;49.464;2.108;2023-12-07T00:09:28;39.87;;;14.93;;
79687;SDS011;69155;49.464;2.108;2023-12-07T00:11:53;56.33;;;16.57;;
79687;SDS011;69155;49.464;2.108;2023-12-07T00:14:18;48.80;;;15.47;;
79687;SDS011;69155;49.464;2.108;2023-12-07T00:16:43;38.25;;;13.70;;
79687;SDS011;69155;49.464;2.108;2023-12-07T00:19:09;49.83;;;16.53;;
79687;SDS011;69155;49.464;2.108;2023-12-07T00:21:34;59.47;;;16.33;;
79687;SDS011;69155;49.464;2.108;2023-12-07T00:23:59;45.70;;;14.45;;
79687;SDS011;69155;49.464;2.108;2023-12-07T00:26:26;57.13;;;19.13;;
79687;SDS011;69155;49.464;2.108;2023-12-07T00:28:51;52.93;;;16.50;;
79687;SDS011;69155;49.464;2.108;2023-12-07T00:31:16;50.20;;;16.17;;
79687;SDS011;69155;49.464;2.108;2023-12-07T00:33:44;45.25;;;12.98;;
79687;SDS011;69155;49.464;2.108;2023-12-07T00:36:11;32.70;;;11.63;;
79687;SDS011;69155;49.464;2.108;2023-12-07T00:38:37;61.50;;;17.52;;
79687;SDS011;69155;49.464;2.108;2023-12-07T00:41:03;43.67;;;14.07;;
79687;SDS011;69155;49.464;2.108;2023-12-07T00:43:28;53.50;;;16.67;;
79687;SDS011;69155;49.464;2.108;2023-12-07T00:45:53;57.20;;;17.03;;
79687;SDS011;69155;49.464;2.108;2023-12-07T00:48:19;46.30;;;15.55;;
79687;SDS011;69155;49.464;2.108;2023-12-07T00:50:44;54.20;;;15.93;;
79687;SDS011;69155;49.464;2.108;2023-12-07T00:53:09;48.77;;;15.97;;
79687;SDS011;69155;49.464;2.108;2023-12-07T00:55:34;45.20;;;15.30;;
79687;SDS011;69155;49.464;2.108;2023-12-07T00:58:00;50.43;;;16.73;;
79687;SDS011;69155;49.464;2.108;2023-12-07T01:00:26;60.88;;;16.13;;
79687;SDS011;69155;49.464;2.108;2023-12-07T01:02:51;49.87;;;17.07;;
79687;SDS011;69155;49.464;2.108;2023-12-07T01:05:17;51.57;;;17.83;;
79687;SDS011;69155;49.464;2.108;2023-12-07T01:07:42;60.83;;;18.27;;
79687;SDS011;69155;49.464;2.108;2023-12-07T01:10:07;51.87;;;18.27;;
79687;SDS011;69155;49.464;2.108;2023-12-07T01:12:33;39.13;;;13.25;;
79687;SDS011;69155;49.464;2.108;2023-12-07T01:14:58;42.27;;;15.47;;
79687;SDS011;69155;49.464;2.108;2023-12-07T01:17:23;46.03;;;18.43;;
79687;SDS011;69155;49.464;2.108;2023-12-07T01:19:51;49.75;;;17.17;;
79687;SDS011;69155;49.464;2.108;2023-12-07T01:22:16;47.73;;;18.77;;
79687;SDS011;69155;49.464;2.108;2023-12-07T01:24:41;48.03;;;16.27;;
79687;SDS011;69155;49.464;2.108;2023-12-07T01:27:06;47.67;;;17.07;;
79687;SDS011;69155;49.464;2.108;2023-12-07T01:29:32;53.37;;;18.23;;
79687;SDS011;69155;49.464;2.108;2023-12-07T01:31:57;56.47;;;17.30;;
79687;SDS011;69155;49.464;2.108;2023-12-07T01:34:25;40.77;;;16.47;;
79687;SDS011;69155;49.464;2.108;2023-12-07T01:36:50;50.40;;;18.15;;
79687;SDS011;69155;49.464;2.108;2023-12-07T01:39:15;56.97;;;17.73;;
79687;SDS011;69155;49.464;2.108;2023-12-07T01:41:40;51.57;;;17.37;;
79687;SDS011;69155;49.464;2.108;2023-12-07T01:44:08;53.90;;;18.13;;
79687;SDS011;69155;49.464;2.108;2023-12-07T01:46:33;44.60;;;16.55;;
79687;SDS011;69155;49.464;2.108;2023-12-07T01:48:59;52.25;;;17.30;;
79687;SDS011;69155;49.464;2.108;2023-12-07T01:51:24;46.03;;;16.40;;
79687;SDS011;69155;49.464;2.108;2023-12-07T01:53:50;57.85;;;19.20;;
79687;SDS011;69155;49.464;2.108;2023-12-07T01:56:16;49.38;;;18.58;;
79687;SDS011;69155;49.464;2.108;2023-12-07T01:58:41;51.47;;;17.80;;
79687;SDS011;69155;49.464;2.108;2023-12-07T02:01:07;46.90;;;17.08;;
79687;SDS011;69155;49.464;2.108;2023-12-07T02:03:32;49.27;;;15.50;;
79687;SDS011;69155;49.464;2.108;2023-12-07T02:05:57;43.63;;;17.33;;
79687;SDS011;69155;49.464;2.108;2023-12-07T02:08:23;42.95;;;17.95;;
79687;SDS011;69155;49.464;2.108;2023-12-07T02:10:48;44.10;;;17.67;;
79687;SDS011;69155;49.464;2.108;2023-12-07T02:13:13;39.67;;;16.83;;
79687;SDS011;69155;49.464;2.108;2023-12-07T02:15:39;47.22;;;18.20;;
79687;SDS011;69155;49.464;2.108;2023-12-07T02:23:56;36.05;;;16.55;;
79687;SDS011;69155;49.464;2.108;2023-12-07T02:26:22;52.55;;;18.60;;
79687;SDS011;69155;49.464;2.108;2023-12-07T02:28:49;48.97;;;18.48;;
79687;SDS011;69155;49.464;2.108;2023-12-07T02:31:14;41.40;;;16.50;;
79687;SDS011;69155;49.464;2.108;2023-12-07T02:33:42;39.40;;;16.03;;
79687;SDS011;69155;49.464;2.108;2023-12-07T02:36:08;50.53;;;19.27;;
79687;SDS011;69155;49.464;2.108;2023-12-07T02:38:33;43.47;;;17.23;;
79687;SDS011;69155;49.464;2.108;2023-12-07T02:40:59;44.38;;;17.20;;
79687;SDS011;69155;49.464;2.108;2023-12-07T02:43:26;46.67;;;17.50;;
79687;SDS011;69155;49.464;2.108;2023-12-07T02:45:51;50.80;;;17.83;;
79687;SDS011;69155;49.464;2.108;2023-12-07T02:48:17;45.17;;;16.53;;
79687;SDS011;69155;49.464;2.108;2023-12-07T02:50:42;54.25;;;19.00;;
79687;SDS011;69155;49.464;2.108;2023-12-07T02:53:08;36.80;;;14.93;;
79687;SDS011;69155;49.464;2.108;2023-12-07T02:55:33;39.60;;;13.70;;
79687;SDS011;69155;49.464;2.108;2023-12-07T02:57:58;43.77;;;15.33;;
79687;SDS011;69155;49.464;2.108;2023-12-07T03:00:24;58.17;;;17.08;;
79687;SDS011;69155;49.464;2.108;2023-12-07T03:02:49;62.63;;;18.13;;
79687;SDS011;69155;49.464;2.108;2023-12-07T03:05:15;57.58;;;17.00;;
79687;SDS011;69155;49.464;2.108;2023-12-07T03:07:41;54.78;;;17.40;;
79687;SDS011;69155;49.464;2.108;2023-12-07T03:10:06;56.47;;;17.13;;
79687;SDS011;69155;49.464;2.108;2023-12-07T03:12:32;53.28;;;15.63;;
79687;SDS011;69155;49.464;2.108;2023-12-07T03:14:57;39.80;;;13.63;;
79687;SDS011;69155;49.464;2.108;2023-12-07T03:17:22;45.13;;;16.27;;
79687;SDS011;69155;49.464;2.108;2023-12-07T03:19:48;48.15;;;15.60;;
79687;SDS011;69155;49.464;2.108;2023-12-07T03:22:13;36.45;;;13.20;;
79687;SDS011;69155;49.464;2.108;2023-12-07T03:24:39;51.13;;;16.30;;
79687;SDS011;69155;49.464;2.108;2023-12-07T03:27:05;44.50;;;16.25;;
79687;SDS011;69155;49.464;2.108;2023-12-07T03:29:33;47.70;;;14.98;;
79687;SDS011;69155;49.464;2.108;2023-12-07T03:31:59;39.53;;;13.63;;
79687;SDS011;69155;49.464;2.108;2023-12-07T03:34:24;34.10;;;13.57;;
79687;SDS011;69155;49.464;2.108;2023-12-07T03:36:49;35.70;;;13.10;;
79687;SDS011;69155;49.464;2.108;2023-12-07T03:39:15;35.10;;;14.50;;
79687;SDS011;69155;49.464;2.108;2023-12-07T03:41:41;39.25;;;14.05;;
79687;SDS011;69155;49.464;2.108;2023-12-07T03:44:06;40.23;;;14.50;;
79687;SDS011;69155;49.464;2.108;2023-12-07T03:46:31;38.00;;;14.23;;
79687;SDS011;69155;49.464;2.108;2023-12-07T03:48:56;49.43;;;16.80;;
79687;SDS011;69155;49.464;2.108;2023-12-07T03:51:22;45.53;;;16.87;;
79687;SDS011;69155;49.464;2.108;2023-12-07T03:53:47;39.58;;;13.13;;
79687;SDS011;69155;49.464;2.108;2023-12-07T03:56:28;33.92;;;13.52;;
79687;SDS011;69155;49.464;2.108;2023-12-07T03:58:54;46.65;;;16.88;;
79687;SDS011;69155;49.464;2.108;2023-12-07T04:01:22;39.45;;;14.35;;
79687;SDS011;69155;49.464;2.108;2023-12-07T04:03:48;39.67;;;13.80;;
79687;SDS011;69155;49.464;2.108;2023-12-07T04:06:14;46.47;;;14.47;;
79687;SDS011;69155;49.464;2.108;2023-12-07T04:08:39;30.87;;;11.10;;
79687;SDS011;69155;49.464;2.108;2023-12-07T04:11:07;40.10;;;12.97;;
79687;SDS011;69155;49.464;2.108;2023-12-07T04:13:32;38.40;;;13.82;;
79687;SDS011;69155;49.464;2.108;2023-12-07T04:15:57;35.87;;;13.97;;
79687;SDS011;69155;49.464;2.108;2023-12-07T04:18:22;52.20;;;16.57;;
79687;SDS011;69155;49.464;2.108;2023-12-07T04:20:48;38.97;;;14.93;;
79687;SDS011;69155;49.464;2.108;2023-12-07T04:23:13;24.27;;;9.13;;
79687;SDS011;69155;49.464;2.108;2023-12-07T04:25:38;43.37;;;15.10;;
79687;SDS011;69155;49.464;2.108;2023-12-07T04:28:03;22.43;;;10.87;;
79687;SDS011;69155;49.464;2.108;2023-12-07T04:30:29;41.27;;;14.43;;
79687;SDS011;69155;49.464;2.108;2023-12-07T04:32:54;24.33;;;12.23;;
79687;SDS011;69155;49.464;2.108;2023-12-07T04:35:19;21.43;;;10.23;;
79687;SDS011;69155;49.464;2.108;2023-12-07T04:37:44;33.27;;;13.50;;
79687;SDS011;69155;49.464;2.108;2023-12-07T04:40:10;35.00;;;11.50;;
79687;SDS011;69155;49.464;2.108;2023-12-07T04:42:37;33.60;;;13.25;;
79687;SDS011;69155;49.464;2.108;2023-12-07T04:45:03;33.33;;;12.90;;
79687;SDS011;69155;49.464;2.108;2023-12-07T04:47:28;32.10;;;12.60;;
79687;SDS011;69155;49.464;2.108;2023-12-07T04:49:56;34.13;;;12.70;;
79687;SDS011;69155;49.464;2.108;2023-12-07T04:52:21;30.55;;;11.43;;
79687;SDS011;69155;49.464;2.108;2023-12-07T04:54:46;35.97;;;13.00;;
79687;SDS011;69155;49.464;2.108;2023-12-07T04:57:12;30.93;;;13.67;;
79687;SDS011;69155;49.464;2.108;2023-12-07T04:59:37;25.70;;;11.47;;
79687;SDS011;69155;49.464;2.108;2023-12-07T05:02:11;35.37;;;13.50;;
79687;SDS011;69155;49.464;2.108;2023-12-07T05:04:56;34.33;;;11.60;;
79687;SDS011;69155;49.464;2.108;2023-12-07T05:07:22;29.17;;;12.27;;
79687;SDS011;69155;49.464;2.108;2023-12-07T05:09:47;32.03;;;11.63;;
79687;SDS011;69155;49.464;2.108;2023-12-07T05:12:12;31.97;;;12.07;;
79687;SDS011;69155;49.464;2.108;2023-12-07T05:14:37;37.40;;;11.63;;
79687;SDS011;69155;49.464;2.108;2023-12-07T05:17:03;31.48;;;12.02;;
79687;SDS011;69155;49.464;2.108;2023-12-07T05:19:29;26.38;;;10.88;;
79687;SDS011;69155;49.464;2.108;2023-12-07T05:21:54;18.17;;;8.90;;
79687;SDS011;69155;49.464;2.108;2023-12-07T05:24:19;36.67;;;12.53;;
79687;SDS011;69155;49.464;2.108;2023-12-07T05:26:45;34.97;;;14.05;;
79687;SDS011;69155;49.464;2.108;2023-12-07T05:29:14;36.97;;;12.55;;
79687;SDS011;69155;49.464;2.108;2023-12-07T05:31:39;25.80;;;9.80;;
79687;SDS011;69155;49.464;2.108;2023-12-07T05:34:05;33.88;;;12.23;;
79687;SDS011;69155;49.464;2.108;2023-12-07T05:36:30;23.00;;;10.82;;
79687;SDS011;69155;49.464;2.108;2023-12-07T05:38:58;24.07;;;10.43;;
79687;SDS011;69155;49.464;2.108;2023-12-07T05:54:44;33.25;;;12.57;;
79687;SDS011;69155;49.464;2.108;2023-12-07T06:00:31;26.13;;;10.00;;
79687;SDS011;69155;49.464;2.108;2023-12-07T06:03:30;29.65;;;10.55;;
79687;SDS011;69155;49.464;2.108;2023-12-07T06:06:36;25.33;;;10.38;;
79687;SDS011;69155;49.464;2.108;2023-12-07T06:09:22;36.22;;;13.88;;
79687;SDS011;69155;49.464;2.108;2023-12-07T06:15:33;34.38;;;13.10;;
79687;SDS011;69155;49.464;2.108;2023-12-07T06:36:53;20.58;;;9.15;;
79687;SDS011;69155;49.464;2.108;2023-12-07T06:39:47;22.55;;;9.82;;
79687;SDS011;69155;49.464;2.108;2023-12-07T06:55:04;20.27;;;10.52;;
79687;SDS011;69155;49.464;2.108;2023-12-07T07:01:00;28.17;;;11.27;;
79687;SDS011;69155;49.464;2.108;2023-12-07T07:03:26;27.67;;;11.40;;
79687;SDS011;69155;49.464;2.108;2023-12-07T07:05:52;27.25;;;13.15;;
79687;SDS011;69155;49.464;2.108;2023-12-07T07:08:18;24.20;;;11.50;;
79687;SDS011;69155;49.464;2.108;2023-12-07T07:10:46;24.83;;;11.80;;
79687;SDS011;69155;49.464;2.108;2023-12-07T07:13:16;20.42;;;10.30;;
79687;SDS011;69155;49.464;2.108;2023-12-07T07:15:44;19.75;;;9.50;;
79687;SDS011;69155;49.464;2.108;2023-12-07T07:18:09;20.37;;;10.10;;
79687;SDS011;69155;49.464;2.108;2023-12-07T07:20:35;25.83;;;12.37;;
79687;SDS011;69155;49.464;2.108;2023-12-07T07:23:00;22.60;;;12.73;;
79687;SDS011;69155;49.464;2.108;2023-12-07T07:25:25;30.65;;;12.45;;
79687;SDS011;69155;49.464;2.108;2023-12-07T07:27:50;22.10;;;11.03;;
79687;SDS011;69155;49.464;2.108;2023-12-07T07:30:17;20.50;;;9.55;;
79687;SDS011;69155;49.464;2.108;2023-12-07T07:32:42;23.37;;;11.67;;
79687;SDS011;69155;49.464;2.108;2023-12-07T07:35:15;21.20;;;9.63;;
79687;SDS011;69155;49.464;2.108;2023-12-07T07:37:40;19.58;;;11.10;;
79687;SDS011;69155;49.464;2.108;2023-12-07T07:40:07;24.08;;;10.75;;
79687;SDS011;69155;49.464;2.108;2023-12-07T07:42:32;16.38;;;9.07;;
79687;SDS011;69155;49.464;2.108;2023-12-07T07:45:00;24.73;;;10.93;;
79687;SDS011;69155;49.464;2.108;2023-12-07T07:47:28;22.80;;;11.03;;
79687;SDS011;69155;49.464;2.108;2023-12-07T07:49:53;22.33;;;10.75;;
79687;SDS011;69155;49.464;2.108;2023-12-07T07:52:18;14.40;;;7.27;;
79687;SDS011;69155;49.464;2.108;2023-12-07T07:54:45;15.80;;;8.20;;
79687;SDS011;69155;49.464;2.108;2023-12-07T07:57:10;21.97;;;10.93;;
79687;SDS011;69155;49.464;2.108;2023-12-07T07:59:36;24.73;;;11.90;;
79687;SDS011;69155;49.464;2.108;2023-12-07T08:02:01;23.00;;;10.83;;
79687;SDS011;69155;49.464;2.108;2023-12-07T08:04:26;14.87;;;7.77;;
79687;SDS011;69155;49.464;2.108;2023-12-07T08:06:51;15.90;;;8.00;;
79687;SDS011;69155;49.464;2.108;2023-12-07T08:09:17;19.43;;;9.50;;
79687;SDS011;69155;49.464;2.108;2023-12-07T08:11:42;20.47;;;12.10;;
79687;SDS011;69155;49.464;2.108;2023-12-07T08:14:07;17.93;;;10.00;;
79687;SDS011;69155;49.464;2.108;2023-12-07T08:16:33;20.38;;;10.00;;
79687;SDS011;69155;49.464;2.108;2023-12-07T08:18:58;24.40;;;12.23;;
79687;SDS011;69155;49.464;2.108;2023-12-07T08:21:23;24.13;;;9.20;;
79687;SDS011;69155;49.464;2.108;2023-12-07T08:23:49;22.90;;;10.15;;
79687;SDS011;69155;49.464;2.108;2023-12-07T08:26:14;21.33;;;10.13;;
79687;SDS011;69155;49.464;2.108;2023-12-07T08:28:40;15.57;;;8.43;;
79687;SDS011;69155;49.464;2.108;2023-12-07T08:31:06;19.25;;;9.13;;
79687;SDS011;69155;49.464;2.108;2023-12-07T08:33:31;7.38;;;4.70;;
79687;SDS011;69155;49.464;2.108;2023-12-07T08:36:01;18.60;;;10.73;;
79687;SDS011;69155;49.464;2.108;2023-12-07T08:38:26;19.50;;;9.48;;
79687;SDS011;69155;49.464;2.108;2023-12-07T08:40:52;16.15;;;8.43;;
79687;SDS011;69155;49.464;2.108;2023-12-07T08:43:20;18.33;;;9.07;;
79687;SDS011;69155;49.464;2.108;2023-12-07T08:45:47;11.57;;;6.43;;
79687;SDS011;69155;49.464;2.108;2023-12-07T08:48:13;15.80;;;9.23;;
79687;SDS011;69155;49.464;2.108;2023-12-07T08:50:38;14.30;;;5.60;;
79687;SDS011;69155;49.464;2.108;2023-12-07T08:53:05;20.90;;;9.20;;
79687;SDS011;69155;49.464;2.108;2023-12-07T08:55:31;16.80;;;8.68;;
79687;SDS011;69155;49.464;2.108;2023-12-07T08:57:56;14.93;;;8.07;;
79687;SDS011;69155;49.464;2.108;2023-12-07T09:00:21;16.23;;;9.37;;
79687;SDS011;69155;49.464;2.108;2023-12-07T09:02:49;13.80;;;6.50;;
79687;SDS011;69155;49.464;2.108;2023-12-07T09:05:14;19.00;;;9.07;;
79687;SDS011;69155;49.464;2.108;2023-12-07T09:07:40;16.90;;;10.35;;
79687;SDS011;69155;49.464;2.108;2023-12-07T09:10:05;18.02;;;9.60;;
79687;SDS011;69155;49.464;2.108;2023-12-07T09:12:31;15.80;;;9.05;;
79687;SDS011;69155;49.464;2.108;2023-12-07T09:14:56;16.60;;;9.13;;
79687;SDS011;69155;49.464;2.108;2023-12-07T09:17:22;22.87;;;10.03;;
79687;SDS011;69155;49.464;2.108;2023-12-07T09:19:47;14.70;;;9.13;;
79687;SDS011;69155;49.464;2.108;2023-12-07T09:22:12;17.00;;;8.67;;
79687;SDS011;69155;49.464;2.108;2023-12-07T09:24:39;19.90;;;10.63;;
79687;SDS011;69155;49.464;2.108;2023-12-07T09:27:04;16.88;;;7.85;;
79687;SDS011;69155;49.464;2.108;2023-12-07T09:29:30;8.83;;;5.20;;
79687;SDS011;69155;49.464;2.108;2023-12-07T09:31:55;16.17;;;8.20;;
79687;SDS011;69155;49.464;2.108;2023-12-07T09:34:20;10.77;;;6.90;;
79687;SDS011;69155;49.464;2.108;2023-12-07T09:36:45;14.33;;;7.13;;
79687;SDS011;69155;49.464;2.108;2023-12-07T09:39:11;13.13;;;8.07;;
79687;SDS011;69155;49.464;2.108;2023-12-07T09:41:36;13.87;;;7.70;;
79687;SDS011;69155;49.464;2.108;2023-12-07T09:44:02;15.50;;;9.00;;
79687;SDS011;69155;49.464;2.108;2023-12-07T09:46:28;15.20;;;7.32;;
79687;SDS011;69155;49.464;2.108;2023-12-07T09:48:55;16.67;;;9.15;;
79687;SDS011;69155;49.464;2.108;2023-12-07T09:51:20;10.53;;;5.93;;
79687;SDS011;69155;49.464;2.108;2023-12-07T09:53:45;9.23;;;5.93;;
79687;SDS011;69155;49.464;2.108;2023-12-07T09:56:16;12.98;;;7.88;;
79687;SDS011;69155;49.464;2.108;2023-12-07T09:58:42;10.50;;;5.73;;
79687;SDS011;69155;49.464;2.108;2023-12-07T10:01:07;11.70;;;6.47;;
79687;SDS011;69155;49.464;2.108;2023-12-07T10:03:32;14.27;;;7.07;;
79687;SDS011;69155;49.464;2.108;2023-12-07T10:05:58;11.32;;;6.25;;
79687;SDS011;69155;49.464;2.108;2023-12-07T10:08:25;14.30;;;7.90;;
79687;SDS011;69155;49.464;2.108;2023-12-07T10:10:53;13.70;;;7.43;;
79687;SDS011;69155;49.464;2.108;2023-12-07T10:13:26;11.18;;;5.95;;
79687;SDS011;69155;49.464;2.108;2023-12-07T10:16:04;15.95;;;7.95;;
79687;SDS011;69155;49.464;2.108;2023-12-07T10:18:30;14.00;;;7.30;;
79687;SDS011;69155;49.464;2.108;2023-12-07T10:20:57;14.82;;;7.75;;
79687;SDS011;69155;49.464;2.108;2023-12-07T10:23:23;10.27;;;5.67;;
79687;SDS011;69155;49.464;2.108;2023-12-07T10:25:50;12.68;;;7.15;;
79687;SDS011;69155;49.464;2.108;2023-12-07T10:28:15;12.10;;;6.93;;
79687;SDS011;69155;49.464;2.108;2023-12-07T10:30:42;13.07;;;6.85;;
79687;SDS011;69155;49.464;2.108;2023-12-07T10:33:09;17.75;;;6.75;;
79687;SDS011;69155;49.464;2.108;2023-12-07T10:35:41;7.60;;;5.15;;
79687;SDS011;69155;49.464;2.108;2023-12-07T10:38:10;11.52;;;6.28;;
79687;SDS011;69155;49.464;2.108;2023-12-07T10:40:35;11.82;;;5.80;;
79687;SDS011;69155;49.464;2.108;2023-12-07T10:43:02;11.60;;;7.50;;
79687;SDS011;69155;49.464;2.108;2023-12-07T10:45:30;9.05;;;5.05;;
79687;SDS011;69155;49.464;2.108;2023-12-07T10:50:23;15.23;;;7.10;;
79687;SDS011;69155;49.464;2.108;2023-12-07T10:52:51;13.15;;;6.70;;
79687;SDS011;69155;49.464;2.108;2023-12-07T10:55:21;12.27;;;6.35;;
79687;SDS011;69155;49.464;2.108;2023-12-07T10:57:51;11.05;;;6.10;;
79687;SDS011;69155;49.464;2.108;2023-12-07T11:00:17;11.65;;;7.40;;
79687;SDS011;69155;49.464;2.108;2023-12-07T11:02:42;8.65;;;5.45;;
79687;SDS011;69155;49.464;2.108;2023-12-07T11:05:08;11.00;;;6.30;;
79687;SDS011;69155;49.464;2.108;2023-12-07T11:07:47;10.00;;;5.75;;
79687;SDS011;69155;49.464;2.108;2023-12-07T11:10:22;14.10;;;6.65;;
79687;SDS011;69155;49.464;2.108;2023-12-07T11:13:13;11.38;;;6.38;;
79687;SDS011;69155;49.464;2.108;2023-12-07T11:15:36;13.27;;;5.93;;
79687;SDS011;69155;49.464;2.108;2023-12-07T11:18:02;11.73;;;6.75;;
79687;SDS011;69155;49.464;2.108;2023-12-07T11:20:40;10.95;;;6.13;;
79687;SDS011;69155;49.464;2.108;2023-12-07T11:23:15;10.60;;;6.15;;
79687;SDS011;69155;49.464;2.108;2023-12-07T11:25:42;9.57;;;5.97;;
79687;SDS011;69155;49.464;2.108;2023-12-07T11:28:07;7.50;;;4.63;;
79687;SDS011;69155;49.464;2.108;2023-12-07T11:30:35;10.10;;;5.85;;
79687;SDS011;69155;49.464;2.108;2023-12-07T11:33:01;9.35;;;5.38;;
79687;SDS011;69155;49.464;2.108;2023-12-07T11:35:28;8.05;;;5.22;;
79687;SDS011;69155;49.464;2.108;2023-12-07T11:38:06;7.97;;;4.60;;
79687;SDS011;69155;49.464;2.108;2023-12-07T11:40:34;8.48;;;5.25;;
79687;SDS011;69155;49.464;2.108;2023-12-07T11:42:59;11.07;;;6.05;;
79687;SDS011;69155;49.464;2.108;2023-12-07T11:45:41;6.40;;;4.40;;
79687;SDS011;69155;49.464;2.108;2023-12-07T11:48:08;6.50;;;4.50;;
79687;SDS011;69155;49.464;2.108;2023-12-07T11:50:33;9.40;;;4.22;;
79687;SDS011;69155;49.464;2.108;2023-12-07T11:53:22;11.57;;;5.35;;
79687;SDS011;69155;49.464;2.108;2023-12-07T11:55:48;10.65;;;4.57;;
79687;SDS011;69155;49.464;2.108;2023-12-07T11:58:13;7.03;;;5.00;;
79687;SDS011;69155;49.464;2.108;2023-12-07T12:00:39;9.57;;;5.13;;
79687;SDS011;69155;49.464;2.108;2023-12-07T12:03:05;8.15;;;5.10;;
79687;SDS011;69155;49.464;2.108;2023-12-07T12:05:30;7.82;;;4.10;;
79687;SDS011;69155;49.464;2.108;2023-12-07T12:07:55;5.93;;;4.20;;
79687;SDS011;69155;49.464;2.108;2023-12-07T12:10:21;10.73;;;5.23;;
79687;SDS011;69155;49.464;2.108;2023-12-07T12:12:49;8.70;;;5.97;;
79687;SDS011;69155;49.464;2.108;2023-12-07T12:15:14;9.03;;;5.47;;
79687;SDS011;69155;49.464;2.108;2023-12-07T12:17:39;8.57;;;4.53;;
79687;SDS011;69155;49.464;2.108;2023-12-07T12:20:05;8.80;;;5.33;;
79687;SDS011;69155;49.464;2.108;2023-12-07T12:22:30;7.40;;;4.80;;
79687;SDS011;69155;49.464;2.108;2023-12-07T12:24:57;6.20;;;4.38;;
79687;SDS011;69155;49.464;2.108;2023-12-07T12:27:25;6.63;;;4.17;;
79687;SDS011;69155;49.464;2.108;2023-12-07T12:29:50;9.93;;;5.47;;
79687;SDS011;69155;49.464;2.108;2023-12-07T12:32:15;6.43;;;4.53;;
79687;SDS011;69155;49.464;2.108;2023-12-07T12:34:41;5.03;;;3.77;;
79687;SDS011;69155;49.464;2.108;2023-12-07T12:37:06;5.93;;;3.72;;
79687;SDS011;69155;49.464;2.108;2023-12-07T12:39:32;4.88;;;3.00;;
79687;SDS011;69155;49.464;2.108;2023-12-07T12:41:57;11.25;;;4.28;;
79687;SDS011;69155;49.464;2.108;2023-12-07T12:44:23;7.78;;;4.40;;
79687;SDS011;69155;49.464;2.108;2023-12-07T12:46:49;13.07;;;4.63;;
79687;SDS011;69155;49.464;2.108;2023-12-07T12:49:14;9.30;;;5.10;;
79687;SDS011;69155;49.464;2.108;2023-12-07T12:51:41;8.65;;;4.35;;
79687;SDS011;69155;49.464;2.108;2023-12-07T12:54:08;6.10;;;4.35;;
79687;SDS011;69155;49.464;2.108;2023-12-07T12:56:34;5.50;;;3.53;;
79687;SDS011;69155;49.464;2.108;2023-12-07T12:58:59;5.60;;;3.50;;
79687;SDS011;69155;49.464;2.108;2023-12-07T13:01:24;4.50;;;3.57;;
79687;SDS011;69155;49.464;2.108;2023-12-07T13:03:50;7.13;;;3.78;;
79687;SDS011;69155;49.464;2.108;2023-12-07T13:06:15;6.23;;;3.63;;
79687;SDS011;69155;49.464;2.108;2023-12-07T13:08:42;3.88;;;2.95;;
79687;SDS011;69155;49.464;2.108;2023-12-07T13:11:08;3.80;;;2.95;;
79687;SDS011;69155;49.464;2.108;2023-12-07T13:13:34;5.27;;;3.13;;
79687;SDS011;69155;49.464;2.108;2023-12-07T13:15:59;6.05;;;3.97;;
79687;SDS011;69155;49.464;2.108;2023-12-07T13:18:24;7.40;;;3.97;;
79687;SDS011;69155;49.464;2.108;2023-12-07T13:20:49;7.40;;;4.10;;
79687;SDS011;69155;49.464;2.108;2023-12-07T13:23:15;8.03;;;4.50;;
79687;SDS011;69155;49.464;2.108;2023-12-07T13:25:42;8.13;;;4.05;;
79687;SDS011;69155;49.464;2.108;2023-12-07T13:28:07;8.93;;;4.53;;
79687;SDS011;69155;49.464;2.108;2023-12-07T13:30:33;6.88;;;4.43;;
79687;SDS011;69155;49.464;2.108;2023-12-07T13:33:00;6.78;;;4.20;;
79687;SDS011;69155;49.464;2.108;2023-12-07T13:35:26;6.70;;;3.53;;
79687;SDS011;69155;49.464;2.108;2023-12-07T13:37:51;6.80;;;3.70;;
79687;SDS011;69155;49.464;2.108;2023-12-07T13:40:16;5.60;;;3.27;;
79687;SDS011;69155;49.464;2.108;2023-12-07T13:42:42;8.93;;;4.43;;
79687;SDS011;69155;49.464;2.108;2023-12-07T13:45:07;5.50;;;3.65;;
79687;SDS011;69155;49.464;2.108;2023-12-07T13:47:33;3.45;;;2.85;;
79687;SDS011;69155;49.464;2.108;2023-12-07T13:50:01;6.13;;;3.83;;
79687;SDS011;69155;49.464;2.108;2023-12-07T13:52:28;9.80;;;4.13;;
79687;SDS011;69155;49.464;2.108;2023-12-07T13:54:54;7.25;;;3.78;;
79687;SDS011;69155;49.464;2.108;2023-12-07T13:57:19;7.93;;;4.82;;
79687;SDS011;69155;49.464;2.108;2023-12-07T13:59:45;9.05;;;4.90;;
79687;SDS011;69155;49.464;2.108;2023-12-07T14:02:10;6.20;;;3.97;;
79687;SDS011;69155;49.464;2.108;2023-12-07T14:04:36;7.50;;;4.55;;
79687;SDS011;69155;49.464;2.108;2023-12-07T14:09:34;7.38;;;4.90;;
79687;SDS011;69155;49.464;2.108;2023-12-07T14:11:59;6.20;;;3.93;;
79687;SDS011;69155;49.464;2.108;2023-12-07T14:14:24;5.03;;;3.80;;
79687;SDS011;69155;49.464;2.108;2023-12-07T14:16:49;6.97;;;4.70;;
79687;SDS011;69155;49.464;2.108;2023-12-07T14:19:15;5.00;;;3.97;;
79687;SDS011;69155;49.464;2.108;2023-12-07T14:21:40;8.47;;;4.43;;
79687;SDS011;69155;49.464;2.108;2023-12-07T14:24:05;6.23;;;3.23;;
79687;SDS011;69155;49.464;2.108;2023-12-07T14:26:32;6.10;;;3.25;;
79687;SDS011;69155;49.464;2.108;2023-12-07T14:28:58;8.17;;;3.80;;
79687;SDS011;69155;49.464;2.108;2023-12-07T14:31:23;7.30;;;4.22;;
79687;SDS011;69155;49.464;2.108;2023-12-07T14:33:49;5.65;;;4.03;;
79687;SDS011;69155;49.464;2.108;2023-12-07T14:36:15;9.00;;;6.03;;
79687;SDS011;69155;49.464;2.108;2023-12-07T14:38:41;13.65;;;6.72;;
79687;SDS011;69155;49.464;2.108;2023-12-07T14:41:07;4.85;;;3.67;;
79687;SDS011;69155;49.464;2.108;2023-12-07T14:43:33;4.88;;;3.42;;
79687;SDS011;69155;49.464;2.108;2023-12-07T14:45:59;7.10;;;3.78;;
79687;SDS011;69155;49.464;2.108;2023-12-07T14:48:24;5.40;;;3.47;;
79687;SDS011;69155;49.464;2.108;2023-12-07T14:50:49;7.37;;;4.03;;
79687;SDS011;69155;49.464;2.108;2023-12-07T14:53:15;3.30;;;2.40;;
79687;SDS011;69155;49.464;2.108;2023-12-07T14:55:40;5.82;;;3.83;;
79687;SDS011;69155;49.464;2.108;2023-12-07T14:58:05;4.75;;;3.50;;
79687;SDS011;69155;49.464;2.108;2023-12-07T15:00:31;5.63;;;3.60;;
79687;SDS011;69155;49.464;2.108;2023-12-07T15:02:56;5.65;;;3.95;;
79687;SDS011;69155;49.464;2.108;2023-12-07T15:05:21;5.60;;;3.60;;
79687;SDS011;69155;49.464;2.108;2023-12-07T15:07:47;6.03;;;3.90;;
79687;SDS011;69155;49.464;2.108;2023-12-07T15:10:15;5.38;;;3.75;;
79687;SDS011;69155;49.464;2.108;2023-12-07T15:12:40;4.13;;;2.80;;
79687;SDS011;69155;49.464;2.108;2023-12-07T15:15:06;6.30;;;3.90;;
79687;SDS011;69155;49.464;2.108;2023-12-07T15:17:31;6.20;;;4.55;;
79687;SDS011;69155;49.464;2.108;2023-12-07T15:19:57;8.93;;;4.40;;
79687;SDS011;69155;49.464;2.108;2023-12-07T15:22:22;3.97;;;2.90;;
79687;SDS011;69155;49.464;2.108;2023-12-07T15:24:48;6.80;;;2.78;;
79687;SDS011;69155;49.464;2.108;2023-12-07T15:27:13;5.50;;;3.00;;
79687;SDS011;69155;49.464;2.108;2023-12-07T15:29:39;6.10;;;4.00;;
79687;SDS011;69155;49.464;2.108;2023-12-07T15:32:05;7.68;;;4.15;;
79687;SDS011;69155;49.464;2.108;2023-12-07T15:34:30;10.40;;;4.20;;